Nearby METAR Reports

 

KDWH - Houston/Dw Hooks, Texas, USA
Distance from station: WNW 3mi, 6km
Updated: 12/05/2019 12:53pm
Mostly cloudy
Mostly cloudy
 Wind from S
Wind: S 10 mph , 17 km/h
Temperature: 73°F , 23°C
Dew Point: 57°F , 14°C
Humidity: 57%
Barometer: 30.03 inHg , 1016.9 hPa
Clouds: Mostly cloudy
Visibility: 10 miles , 16 km
Cloud details: Mostly cloudy 3400 ft
2019/12/05 18:53 KDWH 051853Z 18009KT 10SM BKN034 23/14 A3003 RMK AO2 SLP166 T02330139
KIAH - Houston/Intnl, Texas, USA
Distance from station: ESE 9mi, 14km
Updated: 12/05/2019 12:53pm
Partly cloudy
Partly cloudy
 Wind from S
Wind: S 7 mph , 11 km/h
Temperature: 73°F , 23°C
Dew Point: 57°F , 14°C
Humidity: 57%
Barometer: 30.03 inHg , 1016.9 hPa
Clouds: Partly cloudy
Visibility: 10 miles , 16 km
Cloud details: Partly cloudy 3000 ft
Partly cloudy 12000 ft
Partly cloudy 25000 ft
2019/12/05 18:53 KIAH 051853Z 17006KT 10SM SCT030 SCT120 SCT250 23/14 A3003 RMK AO2 SLP168 T02330139
 
KCXO - Conroe, Texas, USA
Distance from station: NNE 21mi, 34km
Updated: 12/05/2019 12:53pm
Partly cloudy
Partly cloudy
 Wind from SSW
Wind: SSW 13 mph , 20 km/h, Gust: 23 mph , 37 km/h
Temperature: 73°F , 23°C
Dew Point: 57°F , 14°C
Humidity: 57%
Barometer: 30.02 inHg , 1016.6 hPa
Clouds: Partly cloudy
Visibility: 10 miles , 16 km
Cloud details: Partly cloudy 3100 ft
2019/12/05 18:53 KCXO 051853Z 20011G20KT 10SM SCT031 23/14 A3002 RMK AO2 SLP164 T02330144
KMCJ - Houston/Univ, Texas, USA
Distance from station: SSE 24mi, 39km
Updated: 12/05/2019 1:15pm
Clear
Clear
 Wind from varies
Wind: varies 6 mph , 9 km/h
Temperature: 75°F , 24°C
Dew Point: 54°F , 12°C
Humidity: 47%
Barometer: 30.01 inHg , 1016.3 hPa
Clouds: Clear
Visibility: 10 miles , 16 km
2019/12/05 19:15 KMCJ 051915Z AUTO VRB05KT 10SM CLR 24/12 A3001 RMK A01
 
KTME - Houston Exec, Texas, USA
Distance from station: SW 30mi, 48km
Updated: 12/05/2019 1:15pm
Few Clouds
Few Clouds
 Wind from S
Wind: S 10 mph , 17 km/h, Gust: 16 mph , 26 km/h
Temperature: 75°F , 24°C
Dew Point: 59°F , 15°C
Humidity: 57%
Barometer: 30.02 inHg , 1016.6 hPa
Clouds: Few Clouds
Visibility: 10 miles , 16 km
Cloud details: Few Clouds 3700 ft
2019/12/05 19:15 KTME 051915Z AUTO 19009G14KT 10SM FEW037 24/15 A3002 RMK AO2
KHOU - Houston/Hobby, Texas, USA
Distance from station: SSE 32mi, 51km
Updated: 12/05/2019 12:53pm
Mostly cloudy
Mostly cloudy
 Wind from S
Wind: S 10 mph , 17 km/h
Temperature: 75°F , 24°C
Dew Point: 55°F , 13°C
Humidity: 50%
Barometer: 30.02 inHg , 1016.6 hPa
Clouds: Mostly cloudy
Visibility: 10 miles , 16 km
Cloud details: Few Clouds 4000 ft
Partly cloudy 17000 ft
Mostly cloudy 25000 ft
2019/12/05 18:53 KHOU 051853Z 17009KT 10SM FEW040 SCT170 BKN250 24/13 A3002 RMK AO2 SLP170 T02440133
 
KSGR - Houston/Sugar La, Texas, USA
Distance from station: SSW 32mi, 51km
Updated: 12/05/2019 12:53pm
Clear
Clear
 Wind from S
Wind: S 12 mph , 19 km/h
Temperature: 75°F , 24°C
Dew Point: 59°F , 15°C
Humidity: 57%
Barometer: 30.02 inHg , 1016.6 hPa
Clouds: Clear
Visibility: 10 miles , 16 km
2019/12/05 18:53 KSGR 051853Z 18010KT 10SM CLR 24/15 A3002 RMK AO2 SLP167 T02390150
K6R3 - Cleveland Muni, Texas, USA
Distance from station: NE 36mi, 58km
Updated: 12/05/2019 1:15pm
Partly cloudy
Partly cloudy
 Wind from S
Wind: S 8 mph , 13 km/h
Temperature: 73°F , 23°C
Dew Point: 54°F , 12°C
Humidity: 50%
Barometer: 30.02 inHg , 1016.6 hPa
Clouds: Partly cloudy
Visibility: 10 miles , 16 km
Cloud details: Partly cloudy 3400 ft
2019/12/05 19:15 K6R3 051915Z AUTO 18007KT 10SM SCT034 23/12 A3002 RMK AO2 T02320122
 
KAXH - Houston/Southwst, Texas, USA
Distance from station: S 37mi, 60km
Updated: 12/05/2019 1:15pm
Partly cloudy
Partly cloudy
 Wind from S
Wind: S 6 mph , 9 km/h
Temperature: 75°F , 24°C
Dew Point: 59°F , 15°C
Humidity: 57%
Barometer: 30.02 inHg , 1016.6 hPa
Clouds: Partly cloudy
Visibility: 10 miles , 16 km
Cloud details: Partly cloudy 4100 ft
2019/12/05 19:15 KAXH 051915Z AUTO 17005KT 10SM SCT041 24/15 A3002 RMK AO2 T02350150
KEFD - Houston/Ellingto, Texas, USA
Distance from station: SSE 37mi, 60km
Updated: 12/05/2019 12:50pm
Partly cloudy
Partly cloudy
 Wind from S
Wind: S 10 mph , 17 km/h
Temperature: 73°F , 23°C
Dew Point: 55°F , 13°C
Humidity: 53%
Barometer: 30.01 inHg , 1016.3 hPa
Clouds: Partly cloudy
Visibility: 10 miles , 16 km
Cloud details: Few Clouds 5000 ft
Partly cloudy 25000 ft
2019/12/05 18:50 KEFD 051850Z 18009KT 10SM FEW050 SCT250 23/13 A3001
 
KLVJ - Houston, Texas, USA
Distance from station: SSE 40mi, 64km
Updated: 12/05/2019 12:53pm
Clear
Clear
 Wind from S
Wind: S 10 mph , 17 km/h
Temperature: 75°F , 24°C
Dew Point: 54°F , 12°C
Humidity: 47%
Barometer: 30.04 inHg , 1017.3 hPa
Clouds: Clear
Visibility: 10 miles , 16 km
2019/12/05 18:53 KLVJ 051853Z AUTO 18009KT 10SM CLR 24/12 A3004 RMK AO2 SLP172 T02440122
KUTS - Huntsville, Texas, USA
Distance from station: N 48mi, 78km
Updated: 12/05/2019 12:53pm
Clear
Clear
 Wind from S
Wind: S 14 mph , 22 km/h, Gust: 20 mph , 31 km/h
Temperature: 73°F , 23°C
Dew Point: 57°F , 14°C
Humidity: 57%
Barometer: 30.00 inHg , 1015.9 hPa
Clouds: Clear
Visibility: 10 miles , 16 km
2019/12/05 18:53 KUTS 051853Z AUTO 18012G17KT 10SM CLR 23/14 A3000 RMK AO2 SLP157 T02330139